createdAt,value
2022-11-23T00:00:13.432Z,7.60
2022-11-23T00:06:04.367Z,6.65
2022-11-23T00:11:36.068Z,6.43
2022-11-23T00:17:07.014Z,7.13
2022-11-23T00:22:38.175Z,7.50
2022-11-23T00:28:09.400Z,7.18
2022-11-23T00:33:42.094Z,7.35
2022-11-23T00:39:13.163Z,7.40
2022-11-23T00:44:45.594Z,7.45
2022-11-23T00:50:17.117Z,8.07
2022-11-23T00:55:53.182Z,7.35
2022-11-23T01:01:26.552Z,7.55
2022-11-23T01:06:58.098Z,7.82
2022-11-23T01:12:30.119Z,7.40
2022-11-23T01:18:01.528Z,7.65
2022-11-23T01:23:32.649Z,7.97
2022-11-23T01:29:04.016Z,7.85
2022-11-23T01:34:35.169Z,7.75
2022-11-23T01:40:07.222Z,7.88
2022-11-23T01:45:41.339Z,7.72
2022-11-23T01:51:18.350Z,7.65
2022-11-23T01:57:23.434Z,7.55
2022-11-23T02:02:57.233Z,7.83
2022-11-23T02:08:28.857Z,7.70
2022-11-23T02:14:00.455Z,8.25
2022-11-23T02:19:56.309Z,7.65
2022-11-23T02:25:45.576Z,7.38
2022-11-23T02:31:16.644Z,8.80
2022-11-23T02:36:51.987Z,8.50
2022-11-23T02:42:23.839Z,8.10
2022-11-23T02:47:55.197Z,7.65
2022-11-23T02:53:26.442Z,7.25
2022-11-23T02:58:58.764Z,7.93
2022-11-23T03:04:30.003Z,8.18
2022-11-23T03:10:01.709Z,7.97
2022-11-23T03:15:33.195Z,7.70
2022-11-23T03:21:06.321Z,8.00
2022-11-23T03:26:41.791Z,7.88
2022-11-23T03:32:14.463Z,7.63
2022-11-23T03:37:48.834Z,7.88
2022-11-23T03:43:20.385Z,7.40
2022-11-23T03:48:51.820Z,7.90
2022-11-23T03:54:22.838Z,7.85
2022-11-23T03:59:53.914Z,7.75
2022-11-23T04:05:28.007Z,7.53
2022-11-23T04:11:28.751Z,7.63
2022-11-23T04:17:00.325Z,7.20
2022-11-23T04:22:32.699Z,7.05
2022-11-23T04:28:04.062Z,7.10
2022-11-23T04:33:36.498Z,6.93
2022-11-23T04:39:08.692Z,6.72
2022-11-23T04:44:50.675Z,6.68
2022-11-23T04:50:23.133Z,6.88
2022-11-23T04:55:58.131Z,7.30
2022-11-23T05:01:30.005Z,7.55
2022-11-23T05:07:20.384Z,6.88
2022-11-23T05:12:58.343Z,7.63
2022-11-23T05:18:30.572Z,6.82
2022-11-23T05:24:03.016Z,7.07
2022-11-23T05:29:35.043Z,6.85
2022-11-23T05:35:08.715Z,7.27
2022-11-23T05:40:41.844Z,7.07
2022-11-23T05:46:13.643Z,6.38
2022-11-23T05:51:46.219Z,6.97
2022-11-23T05:57:22.627Z,7.32
2022-11-23T06:03:00.877Z,7.03
2022-11-23T06:08:34.265Z,6.85
2022-11-23T06:14:08.766Z,6.78
2022-11-23T06:19:43.593Z,7.07
2022-11-23T06:25:16.149Z,7.10
2022-11-23T06:31:04.183Z,7.43
2022-11-23T06:36:36.747Z,7.05
2022-11-23T06:42:31.262Z,6.47
2022-11-23T06:47:59.130Z,7.60
2022-11-23T06:53:31.547Z,5.90
2022-11-23T06:59:07.033Z,6.88
2022-11-23T07:04:38.662Z,6.70
2022-11-23T07:10:16.122Z,7.03
2022-11-23T07:15:50.283Z,6.57
2022-11-23T07:21:21.456Z,7.38
2022-11-23T07:26:53.788Z,7.07
2022-11-23T07:32:24.941Z,6.50
2022-11-23T07:37:56.293Z,8.05
2022-11-23T07:43:27.836Z,7.43
2022-11-23T07:49:02.416Z,6.45
2022-11-23T07:54:33.743Z,7.13
2022-11-23T08:00:05.791Z,7.38
2022-11-23T08:05:43.249Z,6.97
2022-11-23T08:11:19.000Z,7.20
2022-11-23T08:16:51.417Z,7.65
2022-11-23T08:22:22.862Z,7.22
2022-11-23T08:27:57.692Z,7.45
2022-11-23T08:33:28.942Z,7.38
2022-11-23T08:39:00.242Z,7.60
2022-11-23T08:44:31.922Z,7.03
2022-11-23T08:50:03.700Z,6.85
2022-11-23T08:55:34.762Z,7.22
2022-11-23T09:01:13.881Z,6.75
2022-11-23T09:06:45.007Z,6.85
2022-11-23T09:12:17.435Z,7.32
2022-11-23T09:17:48.634Z,6.95
2022-11-23T09:23:20.273Z,5.78
2022-11-23T09:28:51.758Z,6.90
2022-11-23T09:34:23.191Z,6.85
2022-11-23T09:39:54.029Z,7.70
2022-11-23T09:45:40.906Z,8.00
2022-11-23T09:51:17.865Z,7.13
2022-11-23T09:56:51.366Z,7.50
2022-11-23T10:02:29.069Z,7.33
2022-11-23T10:08:35.366Z,7.15
2022-11-23T10:14:15.673Z,7.40
2022-11-23T10:19:57.930Z,7.97
2022-11-23T10:25:38.733Z,7.22
2022-11-23T10:31:21.468Z,6.90
2022-11-23T10:36:52.866Z,7.10
2022-11-23T10:42:31.191Z,7.13
2022-11-23T10:48:02.191Z,7.53
2022-11-23T10:53:34.995Z,7.18
2022-11-23T10:59:06.018Z,6.82
2022-11-23T11:04:37.169Z,6.40
2022-11-23T11:10:32.211Z,7.05
2022-11-23T11:16:05.691Z,6.45
2022-11-23T11:21:41.906Z,7.57
2022-11-23T11:27:20.911Z,6.30
2022-11-23T11:33:15.539Z,6.68
2022-11-23T11:44:41.522Z,6.22
2022-11-23T11:50:31.861Z,6.22
2022-11-23T11:56:28.297Z,6.47
2022-11-23T12:02:27.853Z,5.82
2022-11-23T12:08:18.214Z,6.40
2022-11-23T12:13:49.196Z,6.30
2022-11-23T12:19:53.281Z,6.65
2022-11-23T12:25:39.334Z,6.32
2022-11-23T12:31:27.996Z,7.07
2022-11-23T12:37:14.663Z,6.07
2022-11-23T12:43:01.856Z,6.13
2022-11-23T12:48:41.228Z,6.90
2022-11-23T12:54:32.906Z,6.57
2022-11-23T13:00:08.602Z,6.53
2022-11-23T13:06:13.799Z,6.10
2022-11-23T13:12:06.705Z,6.30
2022-11-23T13:17:49.408Z,6.32
2022-11-23T13:23:23.710Z,6.68
2022-11-23T13:28:59.504Z,6.78
2022-11-23T13:34:47.372Z,6.55
2022-11-23T13:40:42.314Z,6.03
2022-11-23T13:52:06.817Z,5.43
2022-11-23T13:57:39.654Z,5.75
2022-11-23T14:03:51.021Z,6.57
2022-11-23T14:09:33.135Z,5.93
2022-11-23T14:15:14.399Z,6.03
2022-11-23T14:20:57.852Z,6.45
2022-11-23T14:27:23.731Z,6.37
2022-11-23T14:33:10.511Z,5.85
2022-11-23T14:38:52.371Z,5.88
2022-11-23T14:44:26.410Z,6.90
2022-11-23T14:49:58.106Z,6.18
2022-11-23T14:55:30.587Z,6.47
2022-11-23T15:01:02.380Z,5.88
2022-11-23T15:06:38.592Z,6.95
2022-11-23T15:12:41.761Z,6.40
2022-11-23T15:18:12.894Z,6.43
2022-11-23T15:24:02.154Z,6.32
2022-11-23T15:29:38.504Z,6.25
2022-11-23T15:35:14.829Z,6.18
2022-11-23T15:40:50.646Z,6.35
2022-11-23T15:46:30.585Z,6.70
2022-11-23T15:52:02.808Z,6.35
2022-11-23T15:57:34.335Z,6.40
2022-11-23T16:03:23.773Z,6.13
2022-11-23T16:08:54.803Z,6.57
2022-11-23T16:14:32.036Z,5.90
2022-11-23T16:20:05.268Z,6.72
2022-11-23T16:25:36.439Z,6.33
2022-11-23T16:31:29.510Z,6.50
2022-11-23T16:37:04.287Z,7.82
2022-11-23T16:42:35.520Z,6.55
2022-11-23T16:48:26.763Z,7.07
2022-11-23T16:54:15.230Z,6.93
2022-11-23T16:59:48.676Z,6.93
2022-11-23T17:05:21.349Z,7.22
2022-11-23T17:10:52.636Z,6.90
2022-11-23T17:16:25.146Z,6.63
2022-11-23T17:21:56.177Z,7.43
2022-11-23T17:27:27.617Z,7.40
2022-11-23T17:33:00.249Z,7.35
2022-11-23T17:38:31.124Z,7.32
2022-11-23T17:44:02.330Z,8.20
2022-11-23T17:49:33.868Z,7.28
2022-11-23T17:55:06.492Z,8.73
2022-11-23T18:00:38.533Z,7.90
2022-11-23T18:06:21.335Z,8.30
2022-11-23T18:11:52.688Z,8.43
2022-11-23T18:17:24.209Z,9.13
2022-11-23T18:22:55.196Z,8.63
2022-11-23T18:28:26.519Z,8.18
2022-11-23T18:33:57.694Z,8.75
2022-11-23T18:39:28.866Z,8.60
2022-11-23T18:45:01.314Z,8.85
2022-11-23T18:50:32.269Z,8.18
2022-11-23T18:56:04.428Z,8.23
2022-11-23T19:01:36.328Z,8.68
2022-11-23T19:07:07.310Z,8.50
2022-11-23T19:12:38.479Z,8.77
2022-11-23T19:18:09.779Z,9.07
2022-11-23T19:23:41.078Z,8.48
2022-11-23T19:29:13.842Z,8.80
2022-11-23T19:34:45.060Z,8.77
2022-11-23T19:40:17.084Z,8.98
2022-11-23T19:45:54.959Z,8.10
2022-11-23T19:51:26.886Z,7.70
2022-11-23T19:56:58.196Z,8.57
2022-11-23T20:02:30.396Z,8.30
2022-11-23T20:08:02.048Z,8.20
2022-11-23T20:13:33.962Z,8.25
2022-11-23T20:19:07.313Z,8.25
2022-11-23T20:24:38.831Z,8.70
2022-11-23T20:30:10.007Z,8.50
2022-11-23T20:35:41.762Z,8.30
2022-11-23T20:41:15.847Z,8.10
2022-11-23T20:47:01.659Z,8.35
2022-11-23T20:52:33.554Z,7.65
2022-11-23T20:58:04.538Z,8.77
2022-11-23T21:03:37.141Z,8.50
2022-11-23T21:09:09.699Z,8.57
2022-11-23T21:14:41.222Z,7.65
2022-11-23T21:20:12.483Z,7.40
2022-11-23T21:25:43.851Z,7.72
2022-11-23T21:31:17.893Z,7.75
2022-11-23T21:36:49.366Z,8.15
2022-11-23T21:42:20.440Z,8.30
2022-11-23T21:47:54.713Z,7.82
2022-11-23T21:53:26.014Z,8.50
2022-11-23T21:58:57.662Z,8.13
2022-11-23T22:04:28.464Z,8.65
2022-11-23T22:09:59.742Z,8.20
2022-11-23T22:15:31.833Z,8.93
2022-11-23T22:21:06.268Z,7.95
2022-11-23T22:26:37.446Z,7.95
2022-11-23T22:32:08.881Z,9.07
2022-11-23T22:37:40.353Z,8.23
2022-11-23T22:43:11.385Z,7.57
2022-11-23T22:48:44.444Z,7.70
2022-11-23T22:54:15.857Z,8.27
2022-11-23T22:59:47.490Z,8.48
2022-11-23T23:05:19.900Z,7.82
2022-11-23T23:10:51.616Z,8.00
2022-11-23T23:16:23.295Z,8.00
2022-11-23T23:21:54.526Z,7.95
2022-11-23T23:27:25.689Z,8.00
2022-11-23T23:33:00.191Z,8.27
2022-11-23T23:38:31.990Z,8.00
2022-11-23T23:44:03.693Z,7.72
2022-11-23T23:49:34.926Z,7.55
2022-11-23T23:55:07.076Z,7.65
